sensor_id;sensor_type;location;lat;lon;timestamp;temperature;humidity
4635;DHT22;2330;48.158;11.816;2023-03-16T00:01:45;1.20;98.50
4635;DHT22;2330;48.158;11.816;2023-03-16T00:04:12;1.30;98.50
4635;DHT22;2330;48.158;11.816;2023-03-16T00:06:39;1.30;98.50
4635;DHT22;2330;48.158;11.816;2023-03-16T00:09:05;1.30;98.50
4635;DHT22;2330;48.158;11.816;2023-03-16T00:11:32;1.30;98.50
4635;DHT22;2330;48.158;11.816;2023-03-16T00:13:59;1.30;98.50
4635;DHT22;2330;48.158;11.816;2023-03-16T00:16:30;1.20;98.50
4635;DHT22;2330;48.158;11.816;2023-03-16T00:18:56;1.20;98.50
4635;DHT22;2330;48.158;11.816;2023-03-16T00:21:24;1.20;98.50
4635;DHT22;2330;48.158;11.816;2023-03-16T00:23:51;1.10;98.50
4635;DHT22;2330;48.158;11.816;2023-03-16T00:26:18;1.10;98.50
4635;DHT22;2330;48.158;11.816;2023-03-16T00:28:45;1.10;98.50
4635;DHT22;2330;48.158;11.816;2023-03-16T00:31:13;1.10;98.50
4635;DHT22;2330;48.158;11.816;2023-03-16T00:33:40;1.10;98.50
4635;DHT22;2330;48.158;11.816;2023-03-16T00:36:11;1.10;98.50
4635;DHT22;2330;48.158;11.816;2023-03-16T00:38:40;1.00;98.50
4635;DHT22;2330;48.158;11.816;2023-03-16T00:41:12;1.00;98.50
4635;DHT22;2330;48.158;11.816;2023-03-16T00:43:42;1.00;98.50
4635;DHT22;2330;48.158;11.816;2023-03-16T00:46:13;1.00;98.50
4635;DHT22;2330;48.158;11.816;2023-03-16T00:48:42;1.00;98.50
4635;DHT22;2330;48.158;11.816;2023-03-16T00:51:15;1.00;98.50
4635;DHT22;2330;48.158;11.816;2023-03-16T00:53:44;0.90;98.50
4635;DHT22;2330;48.158;11.816;2023-03-16T00:56:11;0.90;98.50
4635;DHT22;2330;48.158;11.816;2023-03-16T00:58:40;0.90;98.50
4635;DHT22;2330;48.158;11.816;2023-03-16T01:01:14;1.00;98.50
4635;DHT22;2330;48.158;11.816;2023-03-16T01:03:41;1.00;98.50
4635;DHT22;2330;48.158;11.816;2023-03-16T01:06:11;1.00;98.50
4635;DHT22;2330;48.158;11.816;2023-03-16T01:08:39;1.00;98.50
4635;DHT22;2330;48.158;11.816;2023-03-16T01:11:10;1.10;98.50
4635;DHT22;2330;48.158;11.816;2023-03-16T01:13:38;1.10;98.50
4635;DHT22;2330;48.158;11.816;2023-03-16T01:16:05;1.00;98.50
4635;DHT22;2330;48.158;11.816;2023-03-16T01:18:33;1.00;98.50
4635;DHT22;2330;48.158;11.816;2023-03-16T01:21:05;1.00;98.50
4635;DHT22;2330;48.158;11.816;2023-03-16T01:23:32;1.00;98.50
4635;DHT22;2330;48.158;11.816;2023-03-16T01:25:59;0.90;98.50
4635;DHT22;2330;48.158;11.816;2023-03-16T01:28:29;1.00;98.50
4635;DHT22;2330;48.158;11.816;2023-03-16T01:31:15;1.00;98.50
4635;DHT22;2330;48.158;11.816;2023-03-16T01:33:42;0.90;98.50
4635;DHT22;2330;48.158;11.816;2023-03-16T01:36:13;0.80;98.50
4635;DHT22;2330;48.158;11.816;2023-03-16T01:38:40;0.80;98.50
4635;DHT22;2330;48.158;11.816;2023-03-16T01:41:07;0.70;98.50
4635;DHT22;2330;48.158;11.816;2023-03-16T01:43:36;0.60;98.50
4635;DHT22;2330;48.158;11.816;2023-03-16T01:48:32;0.50;98.50
4635;DHT22;2330;48.158;11.816;2023-03-16T01:53:37;0.50;98.50
4635;DHT22;2330;48.158;11.816;2023-03-16T01:56:08;0.30;98.50
4635;DHT22;2330;48.158;11.816;2023-03-16T01:58:36;0.30;98.50
4635;DHT22;2330;48.158;11.816;2023-03-16T02:01:04;0.30;98.50
4635;DHT22;2330;48.158;11.816;2023-03-16T02:03:31;0.40;98.50
4635;DHT22;2330;48.158;11.816;2023-03-16T02:06:16;0.40;98.50
4635;DHT22;2330;48.158;11.816;2023-03-16T02:08:44;0.40;98.50
4635;DHT22;2330;48.158;11.816;2023-03-16T02:11:13;0.30;98.50
4635;DHT22;2330;48.158;11.816;2023-03-16T02:13:44;0.10;98.50
4635;DHT22;2330;48.158;11.816;2023-03-16T02:16:12;0.20;98.50
4635;DHT22;2330;48.158;11.816;2023-03-16T02:18:49;0.10;98.50
4635;DHT22;2330;48.158;11.816;2023-03-16T02:23:51;0.20;98.50
4635;DHT22;2330;48.158;11.816;2023-03-16T02:26:39;0.20;98.50
4635;DHT22;2330;48.158;11.816;2023-03-16T02:31:56;0.20;98.50
4635;DHT22;2330;48.158;11.816;2023-03-16T02:34:24;0.40;98.50
4635;DHT22;2330;48.158;11.816;2023-03-16T02:36:52;0.40;98.50
4635;DHT22;2330;48.158;11.816;2023-03-16T02:39:20;0.50;98.50
4635;DHT22;2330;48.158;11.816;2023-03-16T02:41:47;0.50;98.50
4635;DHT22;2330;48.158;11.816;2023-03-16T02:44:22;0.50;98.50
4635;DHT22;2330;48.158;11.816;2023-03-16T02:46:53;0.40;98.50
4635;DHT22;2330;48.158;11.816;2023-03-16T02:49:43;0.30;98.50
4635;DHT22;2330;48.158;11.816;2023-03-16T02:52:11;0.20;98.50
4635;DHT22;2330;48.158;11.816;2023-03-16T02:54:37;0.10;98.50
4635;DHT22;2330;48.158;11.816;2023-03-16T02:57:04;0.10;98.50
4635;DHT22;2330;48.158;11.816;2023-03-16T02:59:31;0.00;98.50
4635;DHT22;2330;48.158;11.816;2023-03-16T03:01:58;0.00;98.50
4635;DHT22;2330;48.158;11.816;2023-03-16T03:04:25;0.00;98.50
4635;DHT22;2330;48.158;11.816;2023-03-16T03:06:51;-0.10;98.50
4635;DHT22;2330;48.158;11.816;2023-03-16T03:09:18;-0.10;98.50
4635;DHT22;2330;48.158;11.816;2023-03-16T03:11:46;-0.10;98.50
4635;DHT22;2330;48.158;11.816;2023-03-16T03:14:13;-0.10;98.50
4635;DHT22;2330;48.158;11.816;2023-03-16T03:16:42;-0.10;98.50
4635;DHT22;2330;48.158;11.816;2023-03-16T03:19:12;-0.10;98.50
4635;DHT22;2330;48.158;11.816;2023-03-16T03:21:40;-0.10;98.50
4635;DHT22;2330;48.158;11.816;2023-03-16T03:24:08;-0.20;98.50
4635;DHT22;2330;48.158;11.816;2023-03-16T03:26:35;-0.30;98.50
4635;DHT22;2330;48.158;11.816;2023-03-16T03:29:03;-0.40;98.50
4635;DHT22;2330;48.158;11.816;2023-03-16T03:31:30;-0.40;98.50
4635;DHT22;2330;48.158;11.816;2023-03-16T03:33:57;-0.40;98.50
4635;DHT22;2330;48.158;11.816;2023-03-16T03:36:24;-0.50;98.50
4635;DHT22;2330;48.158;11.816;2023-03-16T03:38:51;-0.50;98.50
4635;DHT22;2330;48.158;11.816;2023-03-16T03:41:20;-0.60;98.50
4635;DHT22;2330;48.158;11.816;2023-03-16T03:43:48;-0.70;98.50
4635;DHT22;2330;48.158;11.816;2023-03-16T03:46:14;-0.60;98.50
4635;DHT22;2330;48.158;11.816;2023-03-16T03:48:41;-0.70;98.50
4635;DHT22;2330;48.158;11.816;2023-03-16T03:51:08;-0.70;98.50
4635;DHT22;2330;48.158;11.816;2023-03-16T03:53:35;-0.70;98.50
4635;DHT22;2330;48.158;11.816;2023-03-16T03:56:02;-0.70;98.50
4635;DHT22;2330;48.158;11.816;2023-03-16T03:58:29;-0.60;98.50
4635;DHT22;2330;48.158;11.816;2023-03-16T04:00:56;-0.60;98.50
4635;DHT22;2330;48.158;11.816;2023-03-16T04:03:22;-0.60;98.50
4635;DHT22;2330;48.158;11.816;2023-03-16T04:05:49;-0.60;98.50
4635;DHT22;2330;48.158;11.816;2023-03-16T04:08:16;-0.60;98.50
4635;DHT22;2330;48.158;11.816;2023-03-16T04:10:43;-0.60;98.50
4635;DHT22;2330;48.158;11.816;2023-03-16T04:13:10;-0.60;98.50
4635;DHT22;2330;48.158;11.816;2023-03-16T04:15:36;-0.50;98.50
4635;DHT22;2330;48.158;11.816;2023-03-16T04:18:04;-0.60;98.50
4635;DHT22;2330;48.158;11.816;2023-03-16T04:20:31;-0.70;98.50
4635;DHT22;2330;48.158;11.816;2023-03-16T04:22:58;-0.70;98.50
4635;DHT22;2330;48.158;11.816;2023-03-16T04:25:26;-0.80;98.50
4635;DHT22;2330;48.158;11.816;2023-03-16T04:27:53;-0.90;98.50
4635;DHT22;2330;48.158;11.816;2023-03-16T04:30:21;-0.90;98.50
4635;DHT22;2330;48.158;11.816;2023-03-16T04:32:49;-0.90;98.50
4635;DHT22;2330;48.158;11.816;2023-03-16T04:35:18;-0.90;98.50
4635;DHT22;2330;48.158;11.816;2023-03-16T04:37:45;-0.90;98.50
4635;DHT22;2330;48.158;11.816;2023-03-16T04:40:12;-0.90;98.50
4635;DHT22;2330;48.158;11.816;2023-03-16T04:42:43;-0.80;98.50
4635;DHT22;2330;48.158;11.816;2023-03-16T04:45:11;-0.80;98.50
4635;DHT22;2330;48.158;11.816;2023-03-16T04:47:39;-0.80;98.50
4635;DHT22;2330;48.158;11.816;2023-03-16T04:50:07;-0.80;98.50
4635;DHT22;2330;48.158;11.816;2023-03-16T04:52:34;-0.90;98.50
4635;DHT22;2330;48.158;11.816;2023-03-16T04:55:01;-0.90;98.50
4635;DHT22;2330;48.158;11.816;2023-03-16T04:57:27;-1.00;98.50
4635;DHT22;2330;48.158;11.816;2023-03-16T04:59:54;-1.00;98.50
4635;DHT22;2330;48.158;11.816;2023-03-16T05:02:21;-1.00;98.50
4635;DHT22;2330;48.158;11.816;2023-03-16T05:04:48;-1.00;98.50
4635;DHT22;2330;48.158;11.816;2023-03-16T05:07:15;-1.10;98.50
4635;DHT22;2330;48.158;11.816;2023-03-16T05:09:42;-1.20;98.50
4635;DHT22;2330;48.158;11.816;2023-03-16T05:12:09;-1.20;98.50
4635;DHT22;2330;48.158;11.816;2023-03-16T05:14:36;-1.20;98.50
4635;DHT22;2330;48.158;11.816;2023-03-16T05:17:03;-1.20;98.50
4635;DHT22;2330;48.158;11.816;2023-03-16T05:19:30;-1.20;98.50
4635;DHT22;2330;48.158;11.816;2023-03-16T05:21:56;-1.20;98.50
4635;DHT22;2330;48.158;11.816;2023-03-16T05:24:24;-1.20;98.50
4635;DHT22;2330;48.158;11.816;2023-03-16T05:26:51;-1.30;98.50
4635;DHT22;2330;48.158;11.816;2023-03-16T05:29:18;-1.30;98.50
4635;DHT22;2330;48.158;11.816;2023-03-16T05:31:45;-1.30;98.50
4635;DHT22;2330;48.158;11.816;2023-03-16T05:34:14;-1.30;98.50
4635;DHT22;2330;48.158;11.816;2023-03-16T05:36:42;-1.30;98.50
4635;DHT22;2330;48.158;11.816;2023-03-16T05:39:10;-1.30;98.50
4635;DHT22;2330;48.158;11.816;2023-03-16T05:41:37;-1.30;98.50
4635;DHT22;2330;48.158;11.816;2023-03-16T05:44:04;-1.30;98.50
4635;DHT22;2330;48.158;11.816;2023-03-16T05:46:31;-1.30;98.50
4635;DHT22;2330;48.158;11.816;2023-03-16T05:48:59;-1.20;98.50
4635;DHT22;2330;48.158;11.816;2023-03-16T05:51:26;-1.20;98.50
4635;DHT22;2330;48.158;11.816;2023-03-16T05:53:53;-1.10;98.50
4635;DHT22;2330;48.158;11.816;2023-03-16T05:56:27;-1.10;98.50
4635;DHT22;2330;48.158;11.816;2023-03-16T05:58:54;-1.20;98.50
4635;DHT22;2330;48.158;11.816;2023-03-16T06:01:22;-1.20;98.50
4635;DHT22;2330;48.158;11.816;2023-03-16T06:03:49;-1.10;98.50
4635;DHT22;2330;48.158;11.816;2023-03-16T06:06:19;-1.10;98.50
4635;DHT22;2330;48.158;11.816;2023-03-16T06:08:47;-1.00;98.50
4635;DHT22;2330;48.158;11.816;2023-03-16T06:11:14;-1.00;98.50
4635;DHT22;2330;48.158;11.816;2023-03-16T06:13:41;-0.80;98.50
4635;DHT22;2330;48.158;11.816;2023-03-16T06:16:08;-0.60;98.50
4635;DHT22;2330;48.158;11.816;2023-03-16T06:18:37;-0.40;98.50
4635;DHT22;2330;48.158;11.816;2023-03-16T06:21:05;-0.40;98.50
4635;DHT22;2330;48.158;11.816;2023-03-16T06:23:32;-0.40;98.50
4635;DHT22;2330;48.158;11.816;2023-03-16T06:25:59;-0.60;98.50
4635;DHT22;2330;48.158;11.816;2023-03-16T06:28:26;-0.40;98.50
4635;DHT22;2330;48.158;11.816;2023-03-16T06:30:55;-0.10;98.50
4635;DHT22;2330;48.158;11.816;2023-03-16T06:33:23;-0.40;98.50
4635;DHT22;2330;48.158;11.816;2023-03-16T06:35:50;-0.30;98.50
4635;DHT22;2330;48.158;11.816;2023-03-16T06:38:18;-0.50;98.50
4635;DHT22;2330;48.158;11.816;2023-03-16T06:40:45;-0.70;98.50
4635;DHT22;2330;48.158;11.816;2023-03-16T06:43:11;-0.80;98.50
4635;DHT22;2330;48.158;11.816;2023-03-16T06:45:38;-1.00;98.50
4635;DHT22;2330;48.158;11.816;2023-03-16T06:48:05;-1.20;98.50
4635;DHT22;2330;48.158;11.816;2023-03-16T06:50:32;-1.20;98.50
4635;DHT22;2330;48.158;11.816;2023-03-16T06:52:59;-1.20;98.50
4635;DHT22;2330;48.158;11.816;2023-03-16T06:55:26;-1.10;98.50
4635;DHT22;2330;48.158;11.816;2023-03-16T06:57:53;-0.90;98.50
4635;DHT22;2330;48.158;11.816;2023-03-16T07:00:20;-0.80;98.50
4635;DHT22;2330;48.158;11.816;2023-03-16T07:02:47;-0.70;98.50
4635;DHT22;2330;48.158;11.816;2023-03-16T07:05:13;-0.70;98.50
4635;DHT22;2330;48.158;11.816;2023-03-16T07:07:41;-0.60;98.50
4635;DHT22;2330;48.158;11.816;2023-03-16T07:10:10;-0.50;98.50
4635;DHT22;2330;48.158;11.816;2023-03-16T07:12:38;-0.50;98.50
4635;DHT22;2330;48.158;11.816;2023-03-16T07:15:05;-0.40;98.50
4635;DHT22;2330;48.158;11.816;2023-03-16T07:17:32;-0.40;98.50
4635;DHT22;2330;48.158;11.816;2023-03-16T07:19:59;-0.30;98.50
4635;DHT22;2330;48.158;11.816;2023-03-16T07:22:26;-0.30;98.50
4635;DHT22;2330;48.158;11.816;2023-03-16T07:24:52;-0.20;98.50
4635;DHT22;2330;48.158;11.816;2023-03-16T07:27:23;-0.10;98.50
4635;DHT22;2330;48.158;11.816;2023-03-16T07:29:50;-0.10;98.50
4635;DHT22;2330;48.158;11.816;2023-03-16T07:32:21;0.00;98.50
4635;DHT22;2330;48.158;11.816;2023-03-16T07:34:48;0.10;98.50
4635;DHT22;2330;48.158;11.816;2023-03-16T07:37:15;0.10;98.50
4635;DHT22;2330;48.158;11.816;2023-03-16T07:39:47;0.10;98.50
4635;DHT22;2330;48.158;11.816;2023-03-16T07:42:13;0.10;98.50
4635;DHT22;2330;48.158;11.816;2023-03-16T07:44:40;0.10;98.50
4635;DHT22;2330;48.158;11.816;2023-03-16T07:47:11;0.10;98.50
4635;DHT22;2330;48.158;11.816;2023-03-16T07:49:38;0.10;98.50
4635;DHT22;2330;48.158;11.816;2023-03-16T07:52:07;0.30;98.50
4635;DHT22;2330;48.158;11.816;2023-03-16T07:54:33;0.40;98.50
4635;DHT22;2330;48.158;11.816;2023-03-16T07:57:00;0.50;98.50
4635;DHT22;2330;48.158;11.816;2023-03-16T07:59:27;0.60;98.50
4635;DHT22;2330;48.158;11.816;2023-03-16T08:01:54;0.70;98.50
4635;DHT22;2330;48.158;11.816;2023-03-16T08:04:21;0.60;98.50
4635;DHT22;2330;48.158;11.816;2023-03-16T08:06:48;0.80;98.50
4635;DHT22;2330;48.158;11.816;2023-03-16T08:09:15;0.80;98.50
4635;DHT22;2330;48.158;11.816;2023-03-16T08:11:42;0.80;98.50
4635;DHT22;2330;48.158;11.816;2023-03-16T08:14:08;0.80;98.50
4635;DHT22;2330;48.158;11.816;2023-03-16T08:16:35;1.00;98.50
4635;DHT22;2330;48.158;11.816;2023-03-16T08:19:03;1.00;98.50
4635;DHT22;2330;48.158;11.816;2023-03-16T08:21:29;1.00;98.50
4635;DHT22;2330;48.158;11.816;2023-03-16T08:23:56;1.00;98.50
4635;DHT22;2330;48.158;11.816;2023-03-16T08:26:23;1.30;98.50
4635;DHT22;2330;48.158;11.816;2023-03-16T08:28:51;1.50;98.50
4635;DHT22;2330;48.158;11.816;2023-03-16T08:31:19;1.70;98.50
4635;DHT22;2330;48.158;11.816;2023-03-16T08:33:47;1.50;98.50
4635;DHT22;2330;48.158;11.816;2023-03-16T08:36:14;1.70;98.50
4635;DHT22;2330;48.158;11.816;2023-03-16T08:38:42;1.60;98.50
4635;DHT22;2330;48.158;11.816;2023-03-16T08:41:25;1.70;98.50
4635;DHT22;2330;48.158;11.816;2023-03-16T08:43:56;1.70;98.50
4635;DHT22;2330;48.158;11.816;2023-03-16T08:46:23;1.50;98.50
4635;DHT22;2330;48.158;11.816;2023-03-16T08:48:50;1.60;98.50
4635;DHT22;2330;48.158;11.816;2023-03-16T08:51:17;1.60;98.50
4635;DHT22;2330;48.158;11.816;2023-03-16T08:53:45;1.70;98.50
4635;DHT22;2330;48.158;11.816;2023-03-16T08:56:13;1.80;98.50
4635;DHT22;2330;48.158;11.816;2023-03-16T08:58:41;2.20;98.50
4635;DHT22;2330;48.158;11.816;2023-03-16T09:01:13;2.60;98.50
4635;DHT22;2330;48.158;11.816;2023-03-16T09:03:40;3.20;98.50
4635;DHT22;2330;48.158;11.816;2023-03-16T09:06:09;3.50;98.50
4635;DHT22;2330;48.158;11.816;2023-03-16T09:08:36;3.30;98.50
4635;DHT22;2330;48.158;11.816;2023-03-16T09:11:11;3.00;98.50
4635;DHT22;2330;48.158;11.816;2023-03-16T09:13:39;3.60;98.50
4635;DHT22;2330;48.158;11.816;2023-03-16T09:16:07;3.40;98.50
4635;DHT22;2330;48.158;11.816;2023-03-16T09:18:35;3.30;98.50
4635;DHT22;2330;48.158;11.816;2023-03-16T09:21:05;3.30;98.50
4635;DHT22;2330;48.158;11.816;2023-03-16T09:23:33;3.30;98.50
4635;DHT22;2330;48.158;11.816;2023-03-16T09:26:02;2.90;98.50
4635;DHT22;2330;48.158;11.816;2023-03-16T09:28:30;2.70;98.50
4635;DHT22;2330;48.158;11.816;2023-03-16T09:30:57;3.20;98.50
4635;DHT22;2330;48.158;11.816;2023-03-16T09:33:25;3.60;98.50
4635;DHT22;2330;48.158;11.816;2023-03-16T09:35:54;3.60;98.50
4635;DHT22;2330;48.158;11.816;2023-03-16T09:38:24;3.60;98.50
4635;DHT22;2330;48.158;11.816;2023-03-16T09:41:34;3.40;98.50
4635;DHT22;2330;48.158;11.816;2023-03-16T09:44:38;3.30;98.50
4635;DHT22;2330;48.158;11.816;2023-03-16T09:47:10;3.40;98.50
4635;DHT22;2330;48.158;11.816;2023-03-16T09:49:48;3.10;98.50
4635;DHT22;2330;48.158;11.816;2023-03-16T09:54:57;2.80;98.50
4635;DHT22;2330;48.158;11.816;2023-03-16T09:57:31;3.00;98.50
4635;DHT22;2330;48.158;11.816;2023-03-16T10:00:16;3.00;98.50
4635;DHT22;2330;48.158;11.816;2023-03-16T10:03:04;2.90;98.50
4635;DHT22;2330;48.158;11.816;2023-03-16T10:05:35;3.10;98.50
4635;DHT22;2330;48.158;11.816;2023-03-16T10:13:03;3.20;98.50
4635;DHT22;2330;48.158;11.816;2023-03-16T10:15:32;3.50;98.50
4635;DHT22;2330;48.158;11.816;2023-03-16T10:18:13;3.30;98.50
4635;DHT22;2330;48.158;11.816;2023-03-16T10:20:42;3.70;98.50
4635;DHT22;2330;48.158;11.816;2023-03-16T10:23:20;4.10;98.50
4635;DHT22;2330;48.158;11.816;2023-03-16T10:25:51;4.20;98.50
4635;DHT22;2330;48.158;11.816;2023-03-16T10:28:26;4.50;98.50
4635;DHT22;2330;48.158;11.816;2023-03-16T10:30:55;5.00;98.50
4635;DHT22;2330;48.158;11.816;2023-03-16T10:44:00;4.30;98.50
4635;DHT22;2330;48.158;11.816;2023-03-16T10:47:04;4.20;98.50
4635;DHT22;2330;48.158;11.816;2023-03-16T10:49:40;4.50;98.50
4635;DHT22;2330;48.158;11.816;2023-03-16T10:52:32;3.90;98.50
4635;DHT22;2330;48.158;11.816;2023-03-16T10:55:16;3.50;98.50
4635;DHT22;2330;48.158;11.816;2023-03-16T10:57:52;3.70;98.50
4635;DHT22;2330;48.158;11.816;2023-03-16T11:00:35;3.80;98.50
4635;DHT22;2330;48.158;11.816;2023-03-16T11:03:18;4.10;98.50
4635;DHT22;2330;48.158;11.816;2023-03-16T11:05:46;4.50;98.50
4635;DHT22;2330;48.158;11.816;2023-03-16T11:08:18;4.50;98.50
4635;DHT22;2330;48.158;11.816;2023-03-16T11:10:54;4.60;98.50
4635;DHT22;2330;48.158;11.816;2023-03-16T11:13:34;5.20;98.50
4635;DHT22;2330;48.158;11.816;2023-03-16T11:16:31;5.20;98.50
4635;DHT22;2330;48.158;11.816;2023-03-16T11:21:59;6.10;98.50
4635;DHT22;2330;48.158;11.816;2023-03-16T11:25:38;6.50;98.50
4635;DHT22;2330;48.158;11.816;2023-03-16T11:27:45;5.80;98.50
4635;DHT22;2330;48.158;11.816;2023-03-16T11:30:26;5.70;98.50
4635;DHT22;2330;48.158;11.816;2023-03-16T11:32:55;6.10;98.50
4635;DHT22;2330;48.158;11.816;2023-03-16T11:38:24;6.60;98.50
4635;DHT22;2330;48.158;11.816;2023-03-16T11:41:17;7.10;98.50
4635;DHT22;2330;48.158;11.816;2023-03-16T11:43:54;7.40;98.50
4635;DHT22;2330;48.158;11.816;2023-03-16T11:46:25;7.70;98.50
4635;DHT22;2330;48.158;11.816;2023-03-16T11:58:18;7.90;98.40
4635;DHT22;2330;48.158;11.816;2023-03-16T12:15:20;8.60;95.30
4635;DHT22;2330;48.158;11.816;2023-03-16T12:17:53;8.60;93.00
4635;DHT22;2330;48.158;11.816;2023-03-16T12:20:37;8.80;93.30
4635;DHT22;2330;48.158;11.816;2023-03-16T12:23:18;8.20;93.70
4635;DHT22;2330;48.158;11.816;2023-03-16T12:25:49;8.20;93.50
4635;DHT22;2330;48.158;11.816;2023-03-16T12:28:24;8.40;92.60
4635;DHT22;2330;48.158;11.816;2023-03-16T12:39:24;8.70;91.40
4635;DHT22;2330;48.158;11.816;2023-03-16T12:44:45;8.50;92.50
4635;DHT22;2330;48.158;11.816;2023-03-16T12:47:39;8.40;91.40
4635;DHT22;2330;48.158;11.816;2023-03-16T12:50:11;9.10;90.80
4635;DHT22;2330;48.158;11.816;2023-03-16T12:52:42;9.40;89.60
4635;DHT22;2330;48.158;11.816;2023-03-16T12:57:50;10.00;89.70
4635;DHT22;2330;48.158;11.816;2023-03-16T13:00:40;10.20;86.50
4635;DHT22;2330;48.158;11.816;2023-03-16T13:03:15;10.20;87.00
4635;DHT22;2330;48.158;11.816;2023-03-16T13:05:49;10.20;86.40
4635;DHT22;2330;48.158;11.816;2023-03-16T13:08:18;9.40;86.80
4635;DHT22;2330;48.158;11.816;2023-03-16T13:11:09;9.70;87.60
4635;DHT22;2330;48.158;11.816;2023-03-16T13:14:05;10.30;85.90
4635;DHT22;2330;48.158;11.816;2023-03-16T13:16:38;10.50;85.50
4635;DHT22;2330;48.158;11.816;2023-03-16T13:19:26;10.20;87.00
4635;DHT22;2330;48.158;11.816;2023-03-16T13:22:03;10.30;86.00
4635;DHT22;2330;48.158;11.816;2023-03-16T13:24:36;10.00;84.50
4635;DHT22;2330;48.158;11.816;2023-03-16T13:27:18;9.70;83.60
4635;DHT22;2330;48.158;11.816;2023-03-16T13:29:58;10.10;85.00
4635;DHT22;2330;48.158;11.816;2023-03-16T13:32:30;10.70;83.90
4635;DHT22;2330;48.158;11.816;2023-03-16T13:35:01;10.80;82.70
4635;DHT22;2330;48.158;11.816;2023-03-16T13:37:30;10.70;83.00
4635;DHT22;2330;48.158;11.816;2023-03-16T13:40:00;10.40;84.30
4635;DHT22;2330;48.158;11.816;2023-03-16T13:42:31;10.90;85.60
4635;DHT22;2330;48.158;11.816;2023-03-16T13:45:10;11.30;84.10
4635;DHT22;2330;48.158;11.816;2023-03-16T13:47:41;11.50;81.90
4635;DHT22;2330;48.158;11.816;2023-03-16T13:50:13;10.90;83.20
4635;DHT22;2330;48.158;11.816;2023-03-16T13:52:40;10.20;82.30
4635;DHT22;2330;48.158;11.816;2023-03-16T13:55:15;10.30;84.00
4635;DHT22;2330;48.158;11.816;2023-03-16T13:57:44;10.60;83.40
4635;DHT22;2330;48.158;11.816;2023-03-16T14:00:19;10.90;84.50
4635;DHT22;2330;48.158;11.816;2023-03-16T14:02:51;10.70;81.70
4635;DHT22;2330;48.158;11.816;2023-03-16T14:05:28;10.30;81.20
4635;DHT22;2330;48.158;11.816;2023-03-16T14:07:57;10.40;81.40
4635;DHT22;2330;48.158;11.816;2023-03-16T14:10:30;11.10;81.50
4635;DHT22;2330;48.158;11.816;2023-03-16T14:13:21;11.10;78.90
4635;DHT22;2330;48.158;11.816;2023-03-16T14:15:53;11.20;79.40
4635;DHT22;2330;48.158;11.816;2023-03-16T14:21:23;11.90;79.70
4635;DHT22;2330;48.158;11.816;2023-03-16T14:24:05;12.00;79.80
4635;DHT22;2330;48.158;11.816;2023-03-16T14:26:40;11.50;79.60
4635;DHT22;2330;48.158;11.816;2023-03-16T14:29:19;10.80;83.50
4635;DHT22;2330;48.158;11.816;2023-03-16T14:31:47;10.70;82.90
4635;DHT22;2330;48.158;11.816;2023-03-16T14:34:34;11.10;80.60
4635;DHT22;2330;48.158;11.816;2023-03-16T14:37:10;11.40;77.50
4635;DHT22;2330;48.158;11.816;2023-03-16T14:39:38;11.30;79.80
4635;DHT22;2330;48.158;11.816;2023-03-16T14:42:19;10.80;80.20
4635;DHT22;2330;48.158;11.816;2023-03-16T14:44:49;11.00;80.10
4635;DHT22;2330;48.158;11.816;2023-03-16T14:47:25;11.30;78.90
4635;DHT22;2330;48.158;11.816;2023-03-16T14:49:55;11.30;79.20
4635;DHT22;2330;48.158;11.816;2023-03-16T14:52:29;11.50;79.70
4635;DHT22;2330;48.158;11.816;2023-03-16T14:55:00;11.30;77.90
4635;DHT22;2330;48.158;11.816;2023-03-16T14:57:31;10.80;78.10
4635;DHT22;2330;48.158;11.816;2023-03-16T14:59:57;11.00;79.10
4635;DHT22;2330;48.158;11.816;2023-03-16T15:02:27;11.20;79.90
4635;DHT22;2330;48.158;11.816;2023-03-16T15:04:56;10.80;80.70
4635;DHT22;2330;48.158;11.816;2023-03-16T15:07:26;10.60;80.10
4635;DHT22;2330;48.158;11.816;2023-03-16T15:09:56;10.50;80.00
4635;DHT22;2330;48.158;11.816;2023-03-16T15:12:26;10.30;81.10
4635;DHT22;2330;48.158;11.816;2023-03-16T15:14:53;10.60;81.00
4635;DHT22;2330;48.158;11.816;2023-03-16T15:17:38;10.40;80.20
4635;DHT22;2330;48.158;11.816;2023-03-16T15:20:05;10.40;80.60
4635;DHT22;2330;48.158;11.816;2023-03-16T15:22:36;10.20;80.80
4635;DHT22;2330;48.158;11.816;2023-03-16T15:27:48;9.80;81.60
4635;DHT22;2330;48.158;11.816;2023-03-16T15:30:21;9.80;80.80
4635;DHT22;2330;48.158;11.816;2023-03-16T15:32:48;9.70;80.90
4635;DHT22;2330;48.158;11.816;2023-03-16T15:35:16;9.70;82.40
4635;DHT22;2330;48.158;11.816;2023-03-16T15:37:44;9.70;83.80
4635;DHT22;2330;48.158;11.816;2023-03-16T15:40:23;9.70;83.90
4635;DHT22;2330;48.158;11.816;2023-03-16T15:42:51;9.50;82.80
4635;DHT22;2330;48.158;11.816;2023-03-16T15:45:20;9.10;82.40
4635;DHT22;2330;48.158;11.816;2023-03-16T15:47:49;9.20;83.20
4635;DHT22;2330;48.158;11.816;2023-03-16T15:50:18;9.30;83.10
4635;DHT22;2330;48.158;11.816;2023-03-16T15:52:49;9.30;83.60
4635;DHT22;2330;48.158;11.816;2023-03-16T15:55:21;9.40;84.80
4635;DHT22;2330;48.158;11.816;2023-03-16T15:57:55;9.50;84.50
4635;DHT22;2330;48.158;11.816;2023-03-16T16:00:33;9.30;84.60
4635;DHT22;2330;48.158;11.816;2023-03-16T16:03:02;9.10;84.00
4635;DHT22;2330;48.158;11.816;2023-03-16T16:05:29;8.90;85.60
4635;DHT22;2330;48.158;11.816;2023-03-16T16:07:56;8.70;86.30
4635;DHT22;2330;48.158;11.816;2023-03-16T16:10:24;8.60;86.00
4635;DHT22;2330;48.158;11.816;2023-03-16T16:12:54;8.50;86.30
4635;DHT22;2330;48.158;11.816;2023-03-16T16:15:24;8.50;86.10
4635;DHT22;2330;48.158;11.816;2023-03-16T16:17:53;8.40;86.00
4635;DHT22;2330;48.158;11.816;2023-03-16T16:20:39;8.20;86.80
4635;DHT22;2330;48.158;11.816;2023-03-16T16:23:08;8.10;87.10
4635;DHT22;2330;48.158;11.816;2023-03-16T16:25:37;8.10;88.00
4635;DHT22;2330;48.158;11.816;2023-03-16T16:28:17;8.10;88.60
4635;DHT22;2330;48.158;11.816;2023-03-16T16:30:45;8.10;89.10
4635;DHT22;2330;48.158;11.816;2023-03-16T16:33:30;8.00;89.10
4635;DHT22;2330;48.158;11.816;2023-03-16T16:35:59;8.00;89.50
4635;DHT22;2330;48.158;11.816;2023-03-16T16:38:27;7.90;90.40
4635;DHT22;2330;48.158;11.816;2023-03-16T16:40:55;7.90;91.10
4635;DHT22;2330;48.158;11.816;2023-03-16T16:43:41;7.80;90.60
4635;DHT22;2330;48.158;11.816;2023-03-16T16:46:13;7.70;91.40
4635;DHT22;2330;48.158;11.816;2023-03-16T16:48:45;7.60;92.10
4635;DHT22;2330;48.158;11.816;2023-03-16T16:51:17;7.60;92.40
4635;DHT22;2330;48.158;11.816;2023-03-16T16:53:45;7.50;92.40
4635;DHT22;2330;48.158;11.816;2023-03-16T16:56:13;7.40;92.50
4635;DHT22;2330;48.158;11.816;2023-03-16T16:58:42;7.40;92.40
4635;DHT22;2330;48.158;11.816;2023-03-16T17:01:14;7.30;92.70
4635;DHT22;2330;48.158;11.816;2023-03-16T17:03:41;7.30;92.70
4635;DHT22;2330;48.158;11.816;2023-03-16T17:06:15;7.20;93.10
4635;DHT22;2330;48.158;11.816;2023-03-16T17:08:43;7.10;93.30
4635;DHT22;2330;48.158;11.816;2023-03-16T17:11:20;7.00;93.70
4635;DHT22;2330;48.158;11.816;2023-03-16T17:13:48;7.00;93.70
4635;DHT22;2330;48.158;11.816;2023-03-16T17:16:16;7.00;93.90
4635;DHT22;2330;48.158;11.816;2023-03-16T17:18:44;6.90;94.60
4635;DHT22;2330;48.158;11.816;2023-03-16T17:21:14;6.90;95.00
4635;DHT22;2330;48.158;11.816;2023-03-16T17:23:42;6.80;95.40
4635;DHT22;2330;48.158;11.816;2023-03-16T17:26:18;6.70;95.90
4635;DHT22;2330;48.158;11.816;2023-03-16T17:28:52;6.60;95.90
4635;DHT22;2330;48.158;11.816;2023-03-16T17:31:23;6.50;96.50
4635;DHT22;2330;48.158;11.816;2023-03-16T17:33:51;6.50;96.50
4635;DHT22;2330;48.158;11.816;2023-03-16T17:36:20;6.40;96.70